sensor_id;sensor_type;location;lat;lon;timestamp;pressure;altitude;pressure_sealevel;temperature;humidity
68199;BME280;55021;51.554;17.044;2023-06-05T00:06:21;101092.16;;;8.58;64.38
68199;BME280;55021;51.554;17.044;2023-06-05T00:21:52;101181.72;;;8.33;66.84
68199;BME280;55021;51.554;17.044;2023-06-05T00:37:24;101124.19;;;8.01;67.26
68199;BME280;55021;51.554;17.044;2023-06-05T01:08:46;101167.78;;;7.96;69.22
68199;BME280;55021;51.554;17.044;2023-06-05T01:23:53;101126.25;;;7.11;71.37
68199;BME280;55021;51.554;17.044;2023-06-05T01:39:30;101142.16;;;7.14;72.58
68199;BME280;55021;51.554;17.044;2023-06-05T02:10:19;101149.22;;;8.03;69.14
68199;BME280;55021;51.554;17.044;2023-06-05T02:25:51;101148.13;;;7.62;70.12
68199;BME280;55021;51.554;17.044;2023-06-05T02:57:05;101046.47;;;8.04;67.46
68199;BME280;55021;51.554;17.044;2023-06-05T03:12:42;101084.78;;;9.00;64.90
68199;BME280;55021;51.554;17.044;2023-06-05T03:28:02;101048.06;;;8.97;65.26
68199;BME280;55021;51.554;17.044;2023-06-05T03:43:29;101105.88;;;12.84;55.55
68199;BME280;55021;51.554;17.044;2023-06-05T04:14:53;101083.47;;;14.06;52.71
68199;BME280;55021;51.554;17.044;2023-06-05T04:45:38;101048.97;;;13.40;58.83
68199;BME280;55021;51.554;17.044;2023-06-05T05:00:41;101102.94;;;14.27;57.55
68199;BME280;55021;51.554;17.044;2023-06-05T05:16:12;101050.56;;;14.56;56.80
68199;BME280;55021;51.554;17.044;2023-06-05T05:31:14;101111.38;;;16.05;54.51
68199;BME280;55021;51.554;17.044;2023-06-05T06:33:48;101135.38;;;19.07;41.63
68199;BME280;55021;51.554;17.044;2023-06-05T07:04:46;101062.47;;;20.32;37.83
68199;BME280;55021;51.554;17.044;2023-06-05T07:20:10;101064.31;;;21.68;35.73
68199;BME280;55021;51.554;17.044;2023-06-05T07:35:15;101093.25;;;23.02;34.78
68199;BME280;55021;51.554;17.044;2023-06-05T07:50:26;101040.22;;;23.48;33.01
68199;BME280;55021;51.554;17.044;2023-06-05T08:05:29;101043.63;;;23.32;32.58
68199;BME280;55021;51.554;17.044;2023-06-05T08:20:32;101076.66;;;24.22;34.13
68199;BME280;55021;51.554;17.044;2023-06-05T08:35:35;101101.97;;;25.02;31.98
68199;BME280;55021;51.554;17.044;2023-06-05T08:50:39;101103.53;;;24.33;29.36
68199;BME280;55021;51.554;17.044;2023-06-05T09:05:42;101085.16;;;25.55;26.91
68199;BME280;55021;51.554;17.044;2023-06-05T09:20:44;101052.03;;;24.56;25.87
68199;BME280;55021;51.554;17.044;2023-06-05T09:35:47;101089.91;;;25.31;28.33
68199;BME280;55021;51.554;17.044;2023-06-05T10:06:39;101066.69;;;26.17;24.05
68199;BME280;55021;51.554;17.044;2023-06-05T10:22:00;101037.31;;;25.65;28.49
68199;BME280;55021;51.554;17.044;2023-06-05T10:37:51;100984.38;;;25.15;27.56
68199;BME280;55021;51.554;17.044;2023-06-05T11:08:37;100913.34;;;26.58;26.90
68199;BME280;55021;51.554;17.044;2023-06-05T11:39:42;101002.41;;;26.30;25.94
68199;BME280;55021;51.554;17.044;2023-06-05T11:54:56;100946.50;;;26.43;26.91
68199;BME280;55021;51.554;17.044;2023-06-05T12:10:32;100922.75;;;27.39;26.52
68199;BME280;55021;51.554;17.044;2023-06-05T12:25:43;100888.69;;;27.86;24.62
68199;BME280;55021;51.554;17.044;2023-06-05T12:41:18;100848.88;;;27.90;23.56
68199;BME280;55021;51.554;17.044;2023-06-05T12:56:33;100929.56;;;28.38;23.91
68199;BME280;55021;51.554;17.044;2023-06-05T13:11:36;100855.31;;;28.32;24.36
68199;BME280;55021;51.554;17.044;2023-06-05T13:26:46;100868.59;;;27.84;23.57
68199;BME280;55021;51.554;17.044;2023-06-05T14:45:26;100790.16;;;26.85;25.14
68199;BME280;55021;51.554;17.044;2023-06-05T15:00:34;100781.66;;;27.82;23.44
68199;BME280;55021;51.554;17.044;2023-06-05T15:15:40;100792.16;;;25.86;25.51
68199;BME280;55021;51.554;17.044;2023-06-05T15:30:44;100736.94;;;24.50;27.91
68199;BME280;55021;51.554;17.044;2023-06-05T15:46:14;100781.41;;;25.11;29.24
68199;BME280;55021;51.554;17.044;2023-06-05T16:01:34;100814.56;;;24.89;28.65
68199;BME280;55021;51.554;17.044;2023-06-05T16:16:40;100800.03;;;24.99;28.21
68199;BME280;55021;51.554;17.044;2023-06-05T16:31:42;100803.97;;;24.47;29.57
68199;BME280;55021;51.554;17.044;2023-06-05T16:46:47;100778.47;;;24.21;28.98
68199;BME280;55021;51.554;17.044;2023-06-05T17:01:50;100746.84;;;23.94;29.21
68199;BME280;55021;51.554;17.044;2023-06-05T17:16:55;100774.91;;;23.86;30.97
68199;BME280;55021;51.554;17.044;2023-06-05T17:32:03;100732.75;;;23.49;32.31
68199;BME280;55021;51.554;17.044;2023-06-05T17:47:09;100726.22;;;23.09;31.37
68199;BME280;55021;51.554;17.044;2023-06-05T18:18:10;100800.91;;;22.25;35.17
68199;BME280;55021;51.554;17.044;2023-06-05T18:33:27;100760.94;;;21.17;36.45
68199;BME280;55021;51.554;17.044;2023-06-05T19:20:37;100731.91;;;20.01;36.87
68199;BME280;55021;51.554;17.044;2023-06-05T19:36:38;100827.53;;;20.32;38.31
68199;BME280;55021;51.554;17.044;2023-06-05T19:52:28;100732.41;;;19.65;40.75
68199;BME280;55021;51.554;17.044;2023-06-05T20:23:24;100784.03;;;19.50;39.16
68199;BME280;55021;51.554;17.044;2023-06-05T20:38:29;100758.19;;;18.85;40.88
68199;BME280;55021;51.554;17.044;2023-06-05T20:53:34;100737.69;;;18.21;43.42
68199;BME280;55021;51.554;17.044;2023-06-05T21:08:53;100718.25;;;19.22;39.22
68199;BME280;55021;51.554;17.044;2023-06-05T21:24:10;100824.47;;;19.43;41.64
68199;BME280;55021;51.554;17.044;2023-06-05T21:39:48;100777.56;;;18.58;46.36
68199;BME280;55021;51.554;17.044;2023-06-05T21:54:58;100743.94;;;18.42;42.72
68199;BME280;55021;51.554;17.044;2023-06-05T22:10:01;100824.09;;;18.72;43.44
68199;BME280;55021;51.554;17.044;2023-06-05T22:25:18;100755.53;;;17.97;46.91
68199;BME280;55021;51.554;17.044;2023-06-05T23:12:33;100731.47;;;17.99;48.00
68199;BME280;55021;51.554;17.044;2023-06-05T23:27:40;100844.91;;;18.47;48.25
68199;BME280;55021;51.554;17.044;2023-06-05T23:42:44;100781.06;;;17.98;49.12
68199;BME280;55021;51.554;17.044;2023-06-05T23:58:21;100741.34;;;17.87;48.06
